createdAt,value
2022-12-09T00:00:42.640Z,98929.13
2022-12-09T00:03:09.343Z,98930.03
2022-12-09T00:05:39.259Z,98923.13
2022-12-09T00:08:05.798Z,98923.13
2022-12-09T00:10:32.453Z,98923.06
2022-12-09T00:12:58.963Z,98924.81
2022-12-09T00:15:25.341Z,98930.81
2022-12-09T00:17:51.884Z,98923.81
2022-12-09T00:20:18.449Z,98926.38
2022-12-09T00:22:44.983Z,98921.22
2022-12-09T00:25:11.296Z,98923.75
2022-12-09T00:27:37.804Z,98932.56
2022-12-09T00:30:05.260Z,98922.28
2022-12-09T00:32:32.289Z,98918.97
2022-12-09T00:34:58.859Z,98929.53
2022-12-09T00:37:25.467Z,98923.56
2022-12-09T00:39:51.957Z,98930.50
2022-12-09T00:42:18.345Z,98928.97
2022-12-09T00:44:44.745Z,98925.53
2022-12-09T00:47:11.113Z,98919.53
2022-12-09T00:49:37.630Z,98925.53
2022-12-09T00:52:04.209Z,98918.47
2022-12-09T00:54:30.822Z,98916.59
2022-12-09T00:56:57.530Z,98917.28
2022-12-09T00:59:24.079Z,98915.38
2022-12-09T01:01:50.706Z,98916.94
2022-12-09T01:04:17.489Z,98918.47
2022-12-09T01:06:44.226Z,98911.34
2022-12-09T01:09:10.887Z,98919.91
2022-12-09T01:11:37.370Z,98918.91
2022-12-09T01:14:04.160Z,98917.06
2022-12-09T01:16:33.656Z,98923.06
2022-12-09T01:19:03.679Z,98931.72
2022-12-09T01:21:30.658Z,98935.97
2022-12-09T01:23:57.489Z,98931.66
2022-12-09T01:26:24.255Z,98937.03
2022-12-09T01:28:52.855Z,98934.56
2022-12-09T01:31:22.499Z,98937.28
2022-12-09T01:33:49.893Z,98928.78
2022-12-09T01:36:19.173Z,98927.28
2022-12-09T01:38:46.642Z,98924.88
2022-12-09T01:41:14.927Z,98932.94
2022-12-09T01:43:42.085Z,98931.25
2022-12-09T01:46:09.131Z,98932.13
2022-12-09T01:48:42.392Z,98924.53
2022-12-09T01:51:15.722Z,98935.88
2022-12-09T01:53:45.237Z,98924.66
2022-12-09T01:56:27.205Z,98931.00
2022-12-09T01:58:54.987Z,98927.56
2022-12-09T02:01:22.398Z,98929.44
2022-12-09T02:03:49.797Z,98927.00
2022-12-09T02:06:16.909Z,98925.44
2022-12-09T02:08:45.018Z,98924.81
2022-12-09T02:11:29.522Z,98920.81
2022-12-09T02:14:15.838Z,98917.53
2022-12-09T02:17:05.899Z,98921.16
2022-12-09T02:20:01.452Z,98916.09
2022-12-09T02:23:01.376Z,98917.00
2022-12-09T02:25:50.354Z,98917.00
2022-12-09T02:28:17.125Z,98911.75
2022-12-09T02:31:22.544Z,98909.31
2022-12-09T02:34:06.068Z,98910.19
2022-12-09T02:36:54.489Z,98904.13
2022-12-09T02:39:28.414Z,98909.19
2022-12-09T02:41:58.368Z,98903.78
2022-12-09T02:44:26.958Z,98905.31
2022-12-09T02:46:55.402Z,98902.59
2022-12-09T02:49:24.110Z,98903.28
2022-12-09T02:51:51.530Z,98898.81
2022-12-09T02:54:19.919Z,98896.91
2022-12-09T02:56:54.108Z,98889.84
2022-12-09T02:59:21.252Z,98893.94
2022-12-09T03:02:28.256Z,98884.31
2022-12-09T03:05:10.234Z,98889.31
2022-12-09T03:08:02.103Z,98885.81
2022-12-09T03:10:52.388Z,98881.16
2022-12-09T03:13:37.759Z,98892.47
2022-12-09T03:16:43.420Z,98882.91
2022-12-09T03:19:18.534Z,98886.16
2022-12-09T03:21:48.028Z,98890.38
2022-12-09T03:24:20.681Z,98883.41
2022-12-09T03:26:48.732Z,98890.25
2022-12-09T03:29:21.963Z,98888.56
2022-12-09T03:31:50.882Z,98886.72
2022-12-09T03:34:22.749Z,98878.06
2022-12-09T03:36:52.049Z,98876.28
2022-12-09T03:39:24.100Z,98871.13
2022-12-09T03:41:57.694Z,98869.44
2022-12-09T03:44:34.892Z,98863.41
2022-12-09T03:47:03.332Z,98863.25
2022-12-09T03:49:30.217Z,98859.72
2022-12-09T03:52:18.941Z,98861.50
2022-12-09T03:54:47.919Z,98862.31
2022-12-09T03:57:18.976Z,98855.38
2022-12-09T04:00:01.519Z,98858.03
2022-12-09T04:02:29.336Z,98855.38
2022-12-09T04:04:56.265Z,98852.75
2022-12-09T04:07:22.999Z,98852.81
2022-12-09T04:09:49.908Z,98850.38
2022-12-09T04:12:16.864Z,98843.53
2022-12-09T04:14:43.437Z,98843.69
2022-12-09T04:17:11.400Z,98847.28
2022-12-09T04:19:38.194Z,98837.06
2022-12-09T04:22:04.821Z,98837.38
2022-12-09T04:24:31.343Z,98833.28
2022-12-09T04:26:58.077Z,98843.88
2022-12-09T04:29:24.571Z,98839.78
2022-12-09T04:31:51.190Z,98841.72
2022-12-09T04:34:18.085Z,98836.72
2022-12-09T04:36:44.950Z,98835.06
2022-12-09T04:39:11.947Z,98831.72
2022-12-09T04:41:38.896Z,98832.63
2022-12-09T04:44:05.927Z,98834.31
2022-12-09T04:46:33.090Z,98835.16
2022-12-09T04:48:59.926Z,98834.31
2022-12-09T04:51:26.852Z,98830.78
2022-12-09T04:53:53.841Z,98833.38
2022-12-09T04:56:22.345Z,98834.31
2022-12-09T04:58:50.738Z,98836.06
2022-12-09T05:01:24.790Z,98842.25
2022-12-09T05:03:54.971Z,98844.03
2022-12-09T05:06:22.258Z,98844.16
2022-12-09T05:08:49.380Z,98847.75
2022-12-09T05:11:18.107Z,98847.81
2022-12-09T05:13:45.420Z,98853.09
2022-12-09T05:16:16.871Z,98847.13
2022-12-09T05:18:45.581Z,98849.72
2022-12-09T05:21:15.242Z,98848.72
2022-12-09T05:23:42.399Z,98854.69
2022-12-09T05:26:12.553Z,98843.38
2022-12-09T05:28:39.562Z,98847.53
2022-12-09T05:31:10.063Z,98849.16
2022-12-09T05:33:37.838Z,98851.69
2022-12-09T05:36:08.805Z,98853.47
2022-12-09T05:38:35.447Z,98843.03
2022-12-09T05:41:02.281Z,98845.72
2022-12-09T05:43:28.918Z,98838.81
2022-12-09T05:45:55.989Z,98841.50
2022-12-09T05:48:22.880Z,98845.03
2022-12-09T05:50:59.559Z,98850.34
2022-12-09T05:53:26.714Z,98845.09
2022-12-09T05:55:54.134Z,98843.31
2022-12-09T05:58:21.104Z,98836.41
2022-12-09T06:00:48.509Z,98837.34
2022-12-09T06:03:16.131Z,98839.16
2022-12-09T06:05:43.307Z,98841.81
2022-12-09T06:08:10.065Z,98845.50
2022-12-09T06:10:41.400Z,98845.63
2022-12-09T06:13:08.663Z,98845.69
2022-12-09T06:15:35.894Z,98836.25
2022-12-09T06:18:03.193Z,98832.94
2022-12-09T06:20:30.604Z,98833.84
2022-12-09T06:22:57.610Z,98832.16
2022-12-09T06:25:24.211Z,98833.06
2022-12-09T06:27:52.718Z,98832.22
2022-12-09T06:30:19.797Z,98840.88
2022-12-09T06:32:46.786Z,98842.63
2022-12-09T06:35:14.163Z,98845.28
2022-12-09T06:37:41.662Z,98842.69
2022-12-09T06:40:09.287Z,98835.81
2022-12-09T06:42:36.344Z,98839.31
2022-12-09T06:45:03.906Z,98844.53
2022-12-09T06:47:30.628Z,98841.13
2022-12-09T06:50:04.358Z,98841.28
2022-12-09T06:52:32.904Z,98838.81
2022-12-09T06:54:59.442Z,98839.84
2022-12-09T06:57:26.244Z,98838.22
2022-12-09T06:59:53.028Z,98840.13
2022-12-09T07:02:19.769Z,98836.72
2022-12-09T07:04:47.054Z,98836.84
2022-12-09T07:07:15.140Z,98846.44
2022-12-09T07:09:41.932Z,98835.22
2022-12-09T07:12:08.605Z,98838.69
2022-12-09T07:14:36.374Z,98840.44
2022-12-09T07:17:03.900Z,98844.75
2022-12-09T07:19:31.354Z,98837.00
2022-12-09T07:21:58.032Z,98838.75
2022-12-09T07:24:25.411Z,98841.41
2022-12-09T07:26:52.091Z,98845.84
2022-12-09T07:29:19.503Z,98850.25
2022-12-09T07:31:47.703Z,98846.88
2022-12-09T07:34:14.523Z,98846.88
2022-12-09T07:36:41.367Z,98854.69
2022-12-09T07:39:12.100Z,98839.09
2022-12-09T07:41:39.446Z,98842.44
2022-12-09T07:44:06.228Z,98856.25
2022-12-09T07:46:33.226Z,98854.41
2022-12-09T07:49:02.775Z,98855.97
2022-12-09T07:51:29.717Z,98859.22
2022-12-09T07:53:56.486Z,98864.19
2022-12-09T07:56:24.026Z,98859.69
2022-12-09T07:58:53.342Z,98860.38
2022-12-09T08:01:26.726Z,98872.38
2022-12-09T08:03:54.202Z,98865.22
2022-12-09T08:06:24.809Z,98868.53
2022-12-09T08:08:51.986Z,98871.78
2022-12-09T08:11:25.241Z,98869.81
2022-12-09T08:13:52.601Z,98871.31
2022-12-09T08:16:21.521Z,98869.34
2022-12-09T08:18:50.449Z,98876.09
2022-12-09T08:21:29.262Z,98877.72
2022-12-09T08:23:58.272Z,98878.41
2022-12-09T08:26:27.278Z,98881.69
2022-12-09T08:28:54.158Z,98877.25
2022-12-09T08:31:23.427Z,98874.59
2022-12-09T08:33:50.995Z,98878.03
2022-12-09T08:36:26.377Z,98884.00
2022-12-09T08:38:53.088Z,98880.34
2022-12-09T08:41:38.557Z,98877.69
2022-12-09T08:44:09.822Z,98882.72
2022-12-09T08:46:38.475Z,98883.34
2022-12-09T08:49:06.401Z,98885.81
2022-12-09T08:51:34.096Z,98891.78
2022-12-09T08:54:01.418Z,98884.75
2022-12-09T08:56:28.511Z,98880.38
2022-12-09T08:58:55.829Z,98884.66
2022-12-09T09:01:32.256Z,98878.56
2022-12-09T09:04:05.532Z,98888.19
2022-12-09T09:06:35.161Z,98888.13
2022-12-09T09:09:02.024Z,98885.38
2022-12-09T09:11:28.790Z,98874.09
2022-12-09T09:13:55.387Z,98881.84
2022-12-09T09:16:24.041Z,98890.44
2022-12-09T09:18:51.138Z,98886.00
2022-12-09T09:21:21.004Z,98884.16
2022-12-09T09:23:48.220Z,98891.84
2022-12-09T09:26:20.760Z,98890.03
2022-12-09T09:28:48.061Z,98893.28
2022-12-09T09:31:17.612Z,98893.09
2022-12-09T09:33:45.117Z,98893.81
2022-12-09T09:36:14.993Z,98893.75
2022-12-09T09:38:41.801Z,98892.78
2022-12-09T09:41:20.445Z,98898.97
2022-12-09T09:43:47.836Z,98902.41
2022-12-09T09:46:33.327Z,98892.34
2022-12-09T09:49:01.589Z,98898.56
2022-12-09T09:51:28.652Z,98900.53
2022-12-09T09:53:55.539Z,98898.91
2022-12-09T09:56:36.836Z,98895.53
2022-12-09T09:59:16.183Z,98892.78
2022-12-09T10:01:49.703Z,98891.84
2022-12-09T10:04:59.052Z,98889.13
2022-12-09T10:07:31.349Z,98886.22
2022-12-09T10:10:17.806Z,98888.81
2022-12-09T10:13:18.492Z,98883.59
2022-12-09T10:16:14.434Z,98886.94
2022-12-09T10:19:07.695Z,98890.22
2022-12-09T10:21:41.080Z,98883.03
2022-12-09T10:24:26.020Z,98886.31
2022-12-09T10:27:12.650Z,98887.03
2022-12-09T10:29:56.655Z,98882.44
2022-12-09T10:32:26.773Z,98886.59
2022-12-09T10:34:53.425Z,98886.38
2022-12-09T10:37:35.215Z,98886.28
2022-12-09T10:40:08.038Z,98879.00
2022-12-09T10:43:13.793Z,98885.03
2022-12-09T10:48:44.591Z,98879.34
2022-12-09T10:51:25.975Z,98880.03
2022-12-09T10:54:19.345Z,98880.81
2022-12-09T10:57:29.044Z,98874.47
2022-12-09T11:00:07.675Z,98873.22
2022-12-09T11:02:34.840Z,98869.59
2022-12-09T11:05:20.042Z,98866.31
2022-12-09T11:07:51.558Z,98862.78
2022-12-09T11:10:22.339Z,98862.84
2022-12-09T11:12:57.307Z,98868.06
2022-12-09T11:15:28.653Z,98866.31
2022-12-09T11:18:08.013Z,98863.72
2022-12-09T11:20:35.945Z,98858.41
2022-12-09T11:23:05.399Z,98860.09
2022-12-09T11:25:36.090Z,98859.34
2022-12-09T11:28:30.560Z,98860.34
2022-12-09T11:33:58.627Z,98853.19
2022-12-09T11:36:30.980Z,98853.19
2022-12-09T11:39:30.178Z,98851.44
2022-12-09T11:42:18.589Z,98855.59
2022-12-09T11:45:16.021Z,98856.56
2022-12-09T11:48:23.040Z,98852.78
2022-12-09T11:50:42.135Z,98852.72
2022-12-09T11:53:11.500Z,98843.13
2022-12-09T11:55:46.391Z,98843.06
2022-12-09T11:58:21.187Z,98842.22
2022-12-09T12:01:10.549Z,98841.44
2022-12-09T12:03:42.089Z,98841.28
2022-12-09T12:06:27.155Z,98846.56
2022-12-09T12:09:04.499Z,98849.03
2022-12-09T12:11:44.908Z,98846.44
2022-12-09T12:14:16.791Z,98845.44
2022-12-09T12:16:57.210Z,98846.28
2022-12-09T12:19:40.620Z,98845.34
2022-12-09T12:22:20.392Z,98846.09
2022-12-09T12:25:18.310Z,98853.84
2022-12-09T12:28:03.316Z,98838.19
2022-12-09T12:30:39.708Z,98841.66
2022-12-09T12:36:31.599Z,98838.13
2022-12-09T12:38:57.874Z,98842.41
2022-12-09T12:41:42.800Z,98840.88
2022-12-09T12:44:56.244Z,98848.72
2022-12-09T12:48:08.115Z,98845.28
2022-12-09T12:53:16.153Z,98851.19
2022-12-09T12:55:57.821Z,98844.50
2022-12-09T12:59:02.745Z,98834.22
2022-12-09T13:01:41.240Z,98835.13
2022-12-09T13:04:31.547Z,98834.53
2022-12-09T13:07:09.692Z,98838.06
2022-12-09T13:09:48.232Z,98834.59
2022-12-09T13:12:45.352Z,98836.38
2022-12-09T13:15:18.184Z,98830.97
2022-12-09T13:17:47.953Z,98830.00
2022-12-09T13:20:44.081Z,98827.47
2022-12-09T13:23:27.935Z,98823.94
2022-12-09T13:26:24.888Z,98823.88
2022-12-09T13:29:06.264Z,98825.31
2022-12-09T13:31:38.021Z,98824.41
2022-12-09T13:34:26.265Z,98817.38
2022-12-09T13:36:52.667Z,98815.69
2022-12-09T13:39:40.879Z,98818.56
2022-12-09T13:42:46.350Z,98827.22
2022-12-09T13:45:25.097Z,98825.41
2022-12-09T13:47:55.563Z,98828.84
2022-12-09T13:50:36.198Z,98830.91
2022-12-09T13:53:07.457Z,98831.69
2022-12-09T13:55:39.782Z,98832.63
2022-12-09T13:58:06.079Z,98835.97
2022-12-09T14:00:33.788Z,98829.84
2022-12-09T14:03:12.194Z,98838.44
2022-12-09T14:05:40.039Z,98832.31
2022-12-09T14:08:20.908Z,98832.44
2022-12-09T14:10:50.232Z,98827.31
2022-12-09T14:13:29.511Z,98837.22
2022-12-09T14:16:26.333Z,98828.69
2022-12-09T14:18:52.880Z,98832.09
2022-12-09T14:21:19.309Z,98825.34
2022-12-09T14:24:07.235Z,98827.41
2022-12-09T14:26:40.235Z,98821.41
2022-12-09T14:29:06.555Z,98831.09
2022-12-09T14:31:49.727Z,98831.31
2022-12-09T14:34:25.688Z,98833.13
2022-12-09T14:37:02.270Z,98835.13
2022-12-09T14:39:36.900Z,98830.31
2022-12-09T14:42:35.156Z,98824.56
2022-12-09T14:45:01.488Z,98828.09
2022-12-09T14:47:38.362Z,98830.09
2022-12-09T14:50:12.912Z,98827.53
2022-12-09T14:52:57.725Z,98832.97
2022-12-09T14:55:26.146Z,98831.22
2022-12-09T14:57:55.781Z,98833.03
2022-12-09T15:00:40.703Z,98837.50
2022-12-09T15:03:44.921Z,98834.03
2022-12-09T15:06:16.735Z,98834.91
2022-12-09T15:08:43.254Z,98837.44
2022-12-09T15:11:16.572Z,98834.09
2022-12-09T15:13:46.274Z,98835.81
2022-12-09T15:16:16.303Z,98839.41
2022-12-09T15:18:44.696Z,98841.09
2022-12-09T15:21:22.380Z,98834.28
2022-12-09T15:23:48.824Z,98841.19
2022-12-09T15:26:22.111Z,98844.84
2022-12-09T15:28:50.440Z,98836.16
2022-12-09T15:31:23.051Z,98832.81
2022-12-09T15:33:52.072Z,98835.47
2022-12-09T15:36:27.446Z,98836.63
2022-12-09T15:39:01.167Z,98838.53
2022-12-09T15:41:53.968Z,98840.34
2022-12-09T15:44:24.529Z,98838.81
2022-12-09T15:46:52.814Z,98842.41
2022-12-09T15:49:25.167Z,98839.09
2022-12-09T15:51:55.219Z,98837.41
2022-12-09T15:54:26.935Z,98841.09
2022-12-09T15:56:59.818Z,98844.81
2022-12-09T15:59:31.455Z,98845.81
2022-12-09T16:01:59.287Z,98842.41
2022-12-09T16:04:34.947Z,98850.59
2022-12-09T16:07:06.836Z,98848.19
2022-12-09T16:09:35.230Z,98857.84
2022-12-09T16:12:02.060Z,98847.63
2022-12-09T16:14:44.275Z,98854.84
2022-12-09T16:17:21.692Z,98854.22
2022-12-09T16:19:48.257Z,98848.31
2022-12-09T16:22:14.835Z,98849.44
2022-12-09T16:25:14.615Z,98855.97
2022-12-09T16:27:45.924Z,98850.88
2022-12-09T16:30:14.652Z,98854.53
2022-12-09T16:32:47.875Z,98858.19
2022-12-09T16:35:17.407Z,98858.31
2022-12-09T16:38:09.659Z,98858.47
2022-12-09T16:40:45.424Z,98861.88
2022-12-09T16:43:17.756Z,98860.97
2022-12-09T16:46:16.733Z,98862.81
2022-12-09T16:48:43.267Z,98856.56
2022-12-09T16:51:13.980Z,98857.41
2022-12-09T16:53:46.313Z,98856.56
2022-12-09T16:56:33.573Z,98856.56
2022-12-09T16:59:00.030Z,98853.84
2022-12-09T17:01:35.173Z,98857.31
2022-12-09T17:04:24.250Z,98867.75
2022-12-09T17:06:50.933Z,98851.28
2022-12-09T17:09:17.472Z,98855.72
2022-12-09T17:11:48.573Z,98852.34
2022-12-09T17:14:15.657Z,98858.59
2022-12-09T17:16:42.116Z,98857.78
2022-12-09T17:19:08.649Z,98859.63
2022-12-09T17:21:35.014Z,98863.22
2022-12-09T17:24:01.545Z,98864.94
2022-12-09T17:26:27.882Z,98865.00
2022-12-09T17:28:59.819Z,98867.63
2022-12-09T17:31:28.179Z,98871.06
2022-12-09T17:33:57.155Z,98872.00
2022-12-09T17:36:24.766Z,98868.59
2022-12-09T17:38:51.485Z,98878.19
2022-12-09T17:41:23.521Z,98886.81
2022-12-09T17:43:50.218Z,98881.75
2022-12-09T17:46:16.782Z,98884.34
2022-12-09T17:48:43.482Z,98887.84
2022-12-09T17:51:12.491Z,98889.63
2022-12-09T17:53:40.798Z,98893.97
2022-12-09T17:56:13.014Z,98890.44
2022-12-09T17:58:39.851Z,98895.59
2022-12-09T18:01:17.484Z,98902.56
2022-12-09T18:04:02.888Z,98898.13
2022-12-09T18:06:34.536Z,98899.81
2022-12-09T18:09:02.981Z,98902.44
2022-12-09T18:11:29.575Z,98896.34
2022-12-09T18:13:56.095Z,98899.75
2022-12-09T18:16:22.674Z,98907.44
2022-12-09T18:18:49.708Z,98913.41
2022-12-09T18:21:16.797Z,98907.25
2022-12-09T18:23:43.724Z,98906.34
2022-12-09T18:26:13.479Z,98910.63
2022-12-09T18:28:40.156Z,98918.44
2022-12-09T18:31:08.133Z,98914.97
2022-12-09T18:33:34.919Z,98918.50
2022-12-09T18:36:06.096Z,98915.97
2022-12-09T18:38:32.613Z,98920.25
2022-12-09T18:41:01.623Z,98918.56
2022-12-09T18:43:37.960Z,98916.09
2022-12-09T18:46:25.915Z,98922.19
2022-12-09T18:49:05.492Z,98919.59
2022-12-09T18:51:32.669Z,98916.94
2022-12-09T18:54:00.148Z,98923.88
2022-12-09T18:56:27.736Z,98922.19
2022-12-09T18:59:10.220Z,98923.06
2022-12-09T19:01:40.330Z,98922.19
2022-12-09T19:04:11.272Z,98924.03
2022-12-09T19:06:39.325Z,98921.44
2022-12-09T19:09:08.722Z,98928.38
2022-12-09T19:11:37.400Z,98930.06
2022-12-09T19:14:05.490Z,98937.81
2022-12-09T19:16:32.385Z,98931.78
2022-12-09T19:19:03.838Z,98937.75
2022-12-09T19:21:34.357Z,98932.50
2022-12-09T19:24:00.664Z,98934.13
2022-12-09T19:26:31.805Z,98940.19
2022-12-09T19:29:01.026Z,98936.66
2022-12-09T19:31:30.167Z,98943.50
2022-12-09T19:34:01.698Z,98950.31
2022-12-09T19:36:29.933Z,98945.91
2022-12-09T19:38:58.069Z,98941.47
2022-12-09T19:41:24.419Z,98938.75
2022-12-09T19:43:55.345Z,98950.72
2022-12-09T19:46:22.256Z,98951.38
2022-12-09T19:48:48.858Z,98944.28
2022-12-09T19:51:17.166Z,98951.09
2022-12-09T19:53:43.869Z,98945.72
2022-12-09T19:56:16.516Z,98950.00
2022-12-09T19:58:43.830Z,98944.59
2022-12-09T20:01:19.473Z,98946.22
2022-12-09T20:03:47.902Z,98946.16
2022-12-09T20:06:16.224Z,98955.53
2022-12-09T20:08:44.760Z,98952.03
2022-12-09T20:11:23.776Z,98950.34
2022-12-09T20:13:51.052Z,98958.78
2022-12-09T20:16:20.333Z,98961.41
2022-12-09T20:18:48.462Z,98957.88
2022-12-09T20:21:17.799Z,98962.16
2022-12-09T20:23:45.440Z,98964.69
2022-12-09T20:26:32.507Z,98964.75
2022-12-09T20:29:02.858Z,98963.72
2022-12-09T20:31:31.590Z,98964.50
2022-12-09T20:34:01.723Z,98966.25
2022-12-09T20:36:30.695Z,98966.31
2022-12-09T20:39:00.080Z,98962.94
2022-12-09T20:41:28.017Z,98964.69
2022-12-09T20:43:56.485Z,98972.66
2022-12-09T20:46:29.599Z,98966.66
2022-12-09T20:48:57.055Z,98983.16
2022-12-09T20:51:34.801Z,98978.91
2022-12-09T20:54:02.013Z,98981.44
2022-12-09T20:56:29.840Z,98979.75
2022-12-09T20:58:57.135Z,98981.50
2022-12-09T21:01:31.174Z,98981.72
2022-12-09T21:03:58.922Z,98975.66
2022-12-09T21:06:29.340Z,98980.78
2022-12-09T21:08:57.334Z,98985.09
2022-12-09T21:11:25.162Z,98980.78
2022-12-09T21:13:54.291Z,98982.47
2022-12-09T21:16:25.244Z,98979.81
2022-12-09T21:18:56.929Z,98975.47
2022-12-09T21:21:25.253Z,98972.72
2022-12-09T21:23:54.228Z,98971.81
2022-12-09T21:26:22.710Z,98961.47
2022-12-09T21:28:49.102Z,98963.19
2022-12-09T21:31:22.696Z,98978.13
2022-12-09T21:33:51.206Z,98973.91
2022-12-09T21:36:24.052Z,98976.63
2022-12-09T21:38:51.324Z,98974.94
2022-12-09T21:41:21.163Z,98969.78
2022-12-09T21:43:47.815Z,98975.81
2022-12-09T21:46:20.585Z,98974.94
2022-12-09T21:48:52.063Z,98975.72
2022-12-09T21:51:20.201Z,98979.16
2022-12-09T21:53:47.229Z,98973.09
2022-12-09T21:56:22.165Z,98978.31
2022-12-09T21:58:50.272Z,98982.69
2022-12-09T22:01:28.710Z,98979.34
2022-12-09T22:03:56.646Z,98983.53
2022-12-09T22:06:23.806Z,98985.25
2022-12-09T22:08:50.757Z,98989.53
2022-12-09T22:11:20.714Z,98990.44
2022-12-09T22:13:47.641Z,98996.41
2022-12-09T22:16:26.883Z,98993.94
2022-12-09T22:18:55.191Z,98989.53
2022-12-09T22:21:25.484Z,98993.00
2022-12-09T22:23:54.215Z,98988.59
2022-12-09T22:26:21.231Z,98981.59
2022-12-09T22:28:47.750Z,98991.09
2022-12-09T22:31:23.211Z,98990.16
2022-12-09T22:33:51.439Z,98985.81
2022-12-09T22:36:19.035Z,98990.09
2022-12-09T22:38:46.503Z,98993.56
2022-12-09T22:41:15.719Z,98990.03
2022-12-09T22:43:43.283Z,98991.72
2022-12-09T22:46:12.896Z,98996.09
2022-12-09T22:48:40.388Z,98996.03
2022-12-09T22:51:10.680Z,98996.09
2022-12-09T22:53:37.224Z,98999.59
2022-12-09T22:56:04.133Z,98997.06
2022-12-09T22:58:30.943Z,98997.97
2022-12-09T23:00:57.357Z,98995.50
2022-12-09T23:03:24.408Z,98997.34
2022-12-09T23:05:50.980Z,99000.88
2022-12-09T23:08:17.788Z,98996.53
2022-12-09T23:10:44.161Z,98998.31
2022-12-09T23:13:10.627Z,98993.94
2022-12-09T23:15:37.240Z,98993.06
2022-12-09T23:18:03.940Z,98994.78
2022-12-09T23:20:30.281Z,98999.16
2022-12-09T23:22:56.580Z,98993.16
2022-12-09T23:25:23.126Z,98993.28
2022-12-09T23:27:49.427Z,99001.25
2022-12-09T23:30:15.840Z,98993.50
2022-12-09T23:32:42.574Z,98989.28
2022-12-09T23:35:09.414Z,98996.28
2022-12-09T23:37:35.720Z,98995.44
2022-12-09T23:40:02.081Z,98998.13
2022-12-09T23:42:28.433Z,98992.06
2022-12-09T23:44:54.751Z,98997.25
2022-12-09T23:47:21.105Z,98995.53
2022-12-09T23:49:47.423Z,98990.22
2022-12-09T23:52:13.731Z,98997.16
2022-12-09T23:54:40.146Z,98996.28
2022-12-09T23:57:06.539Z,98995.38
2022-12-09T23:59:32.852Z,98994.47
